createdAt,value
2022-12-18T00:00:32.524Z,100.00
2022-12-18T00:03:21.283Z,100.00
2022-12-18T00:05:54.154Z,100.00
2022-12-18T00:08:21.897Z,100.00
2022-12-18T00:10:50.441Z,100.00
2022-12-18T00:13:18.307Z,100.00
2022-12-18T00:15:45.675Z,100.00
2022-12-18T00:18:18.948Z,100.00
2022-12-18T00:20:54.977Z,100.00
2022-12-18T00:23:22.825Z,100.00
2022-12-18T00:25:50.132Z,100.00
2022-12-18T00:28:17.650Z,100.00
2022-12-18T00:30:45.332Z,100.00
2022-12-18T00:33:13.999Z,100.00
2022-12-18T00:35:41.664Z,100.00
2022-12-18T00:38:11.112Z,100.00
2022-12-18T00:40:39.857Z,100.00
2022-12-18T00:43:09.894Z,100.00
2022-12-18T00:45:37.819Z,100.00
2022-12-18T00:48:06.803Z,100.00
2022-12-18T00:50:34.798Z,100.00
2022-12-18T00:53:05.152Z,100.00
2022-12-18T00:55:33.216Z,100.00
2022-12-18T00:58:01.998Z,100.00
2022-12-18T01:00:30.072Z,100.00
2022-12-18T01:02:57.676Z,100.00
2022-12-18T01:05:31.271Z,100.00
2022-12-18T01:07:59.684Z,100.00
2022-12-18T01:10:27.395Z,100.00
2022-12-18T01:13:09.164Z,100.00
2022-12-18T01:15:36.801Z,100.00
2022-12-18T01:18:05.792Z,100.00
2022-12-18T01:20:33.245Z,100.00
2022-12-18T06:14:27.346Z,100.00
2022-12-18T06:16:54.808Z,100.00
2022-12-18T06:19:22.960Z,100.00
2022-12-18T06:21:51.393Z,100.00
2022-12-18T06:30:50.975Z,100.00
2022-12-18T06:33:20.978Z,100.00
2022-12-18T06:36:05.365Z,100.00
2022-12-18T06:39:00.088Z,100.00
2022-12-18T06:41:27.861Z,100.00
2022-12-18T06:44:00.016Z,100.00
2022-12-18T06:46:27.963Z,100.00
2022-12-18T06:48:55.030Z,100.00
2022-12-18T06:51:24.312Z,100.00
2022-12-18T06:53:51.724Z,100.00
2022-12-18T06:56:18.807Z,100.00
2022-12-18T06:58:45.858Z,100.00
2022-12-18T07:01:14.177Z,100.00
2022-12-18T07:03:44.955Z,100.00
2022-12-18T07:06:18.945Z,100.00
2022-12-18T07:08:49.440Z,100.00
2022-12-18T07:11:19.199Z,100.00
2022-12-18T07:13:46.939Z,100.00
2022-12-18T07:16:25.363Z,100.00
2022-12-18T07:18:55.264Z,100.00
2022-12-18T07:21:25.113Z,100.00
2022-12-18T07:23:52.026Z,100.00
2022-12-18T07:26:20.861Z,100.00
2022-12-18T07:28:48.854Z,100.00
2022-12-18T07:31:19.310Z,100.00
2022-12-18T07:33:46.360Z,100.00
2022-12-18T07:36:15.811Z,100.00
2022-12-18T07:38:42.679Z,100.00
2022-12-18T07:41:12.325Z,100.00
2022-12-18T07:43:41.926Z,100.00
2022-12-18T07:46:17.957Z,100.00
2022-12-18T07:48:49.574Z,100.00
2022-12-18T07:51:23.461Z,100.00
2022-12-18T07:53:52.064Z,100.00
2022-12-18T07:56:27.709Z,100.00
2022-12-18T07:58:55.592Z,100.00
2022-12-18T08:01:22.640Z,100.00
2022-12-18T08:03:50.196Z,100.00
2022-12-18T08:06:24.515Z,96.27
2022-12-18T08:08:59.036Z,100.00
2022-12-18T08:11:31.583Z,100.00
2022-12-18T08:14:04.025Z,100.00
2022-12-18T08:16:31.403Z,99.58
2022-12-18T08:18:59.307Z,100.00
2022-12-18T08:21:29.709Z,98.24
2022-12-18T08:24:00.776Z,98.24
2022-12-18T08:26:34.152Z,100.00
2022-12-18T08:29:07.702Z,100.00
2022-12-18T08:31:38.881Z,100.00
2022-12-18T08:34:06.741Z,100.00
2022-12-18T08:36:34.560Z,98.67
2022-12-18T08:39:02.307Z,100.00
2022-12-18T08:41:31.133Z,99.10
2022-12-18T08:44:17.695Z,99.24
2022-12-18T08:46:45.490Z,98.77
2022-12-18T08:49:15.252Z,94.55
2022-12-18T08:51:42.716Z,90.31
2022-12-18T08:54:14.576Z,86.71
2022-12-18T08:56:42.344Z,91.93
2022-12-18T08:59:13.261Z,90.42
2022-12-18T09:01:46.735Z,89.54
2022-12-18T09:04:14.826Z,87.96
2022-12-18T09:06:42.514Z,89.28
2022-12-18T09:09:10.847Z,86.52
2022-12-18T09:11:38.636Z,86.32
2022-12-18T09:14:06.263Z,79.42
2022-12-18T09:16:35.498Z,73.30
2022-12-18T09:42:32.599Z,77.13
2022-12-18T09:45:03.707Z,70.11
2022-12-18T09:47:38.701Z,71.49
2022-12-18T09:50:31.333Z,75.25
2022-12-18T09:53:22.623Z,73.14
2022-12-18T09:55:51.936Z,74.02
2022-12-18T09:58:37.518Z,72.86
2022-12-18T10:01:38.983Z,76.18
2022-12-18T10:04:12.196Z,77.75
2022-12-18T10:07:14.160Z,78.32
2022-12-18T10:09:54.975Z,78.80
2022-12-18T10:12:39.455Z,78.18
2022-12-18T10:15:31.260Z,76.67
2022-12-18T10:25:08.012Z,84.24
2022-12-18T10:27:35.460Z,85.28
2022-12-18T10:30:15.098Z,83.56
2022-12-18T11:07:05.561Z,81.56
2022-12-18T11:09:37.770Z,86.08
2022-12-18T11:12:20.280Z,86.66
2022-12-18T11:15:00.261Z,89.69
2022-12-18T11:17:36.619Z,90.69
2022-12-18T18:59:36.767Z,100.00
2022-12-18T19:02:05.193Z,100.00
2022-12-18T19:04:45.057Z,100.00
2022-12-18T19:07:30.420Z,100.00
2022-12-18T19:10:04.719Z,100.00
2022-12-18T19:13:28.281Z,100.00
2022-12-18T19:16:12.592Z,100.00
2022-12-18T19:18:42.229Z,100.00
2022-12-18T19:21:15.002Z,100.00
2022-12-18T19:23:54.801Z,100.00
2022-12-18T19:26:42.939Z,100.00
2022-12-18T19:29:39.673Z,100.00
2022-12-18T19:32:26.025Z,100.00
2022-12-18T19:38:40.128Z,100.00
2022-12-18T19:41:20.490Z,100.00
2022-12-18T19:43:51.271Z,100.00
2022-12-18T19:46:21.194Z,100.00
2022-12-18T19:48:49.268Z,100.00
2022-12-18T19:51:17.663Z,100.00
2022-12-18T19:53:45.888Z,100.00
2022-12-18T19:56:20.092Z,100.00
2022-12-18T19:58:49.302Z,100.00
2022-12-18T20:01:20.665Z,100.00
2022-12-18T20:04:04.123Z,100.00
2022-12-18T20:07:15.722Z,100.00
2022-12-18T20:09:59.629Z,100.00
2022-12-18T20:12:55.463Z,100.00
2022-12-18T20:15:29.352Z,100.00
2022-12-18T20:18:09.909Z,100.00
2022-12-18T20:29:40.912Z,100.00
2022-12-18T20:32:18.156Z,100.00
2022-12-18T20:35:22.978Z,100.00
2022-12-18T20:38:28.290Z,100.00
2022-12-18T20:41:35.047Z,100.00
2022-12-18T20:44:37.739Z,100.00
2022-12-18T20:47:22.861Z,100.00
2022-12-18T20:49:59.329Z,100.00
2022-12-18T20:52:55.181Z,100.00
2022-12-18T20:55:34.252Z,100.00
2022-12-18T20:58:06.646Z,100.00
2022-12-18T21:00:56.033Z,100.00
2022-12-18T21:03:38.085Z,100.00
2022-12-18T21:06:08.289Z,100.00
2022-12-18T21:08:37.103Z,100.00
2022-12-18T21:11:50.686Z,100.00
2022-12-18T21:14:40.814Z,100.00
2022-12-18T21:17:12.390Z,100.00
2022-12-18T21:19:43.519Z,100.00
2022-12-18T21:22:11.446Z,100.00
2022-12-18T21:24:54.185Z,100.00
2022-12-18T21:27:36.505Z,100.00
2022-12-18T21:30:19.028Z,100.00
2022-12-18T21:32:56.584Z,100.00
2022-12-18T21:36:02.897Z,100.00
2022-12-18T21:38:36.317Z,100.00
2022-12-18T21:41:08.349Z,100.00
2022-12-18T21:43:57.040Z,100.00
2022-12-18T21:46:27.273Z,100.00
2022-12-18T21:48:55.520Z,100.00
2022-12-18T21:51:32.423Z,100.00
2022-12-18T21:54:00.782Z,100.00
2022-12-18T21:56:51.552Z,100.00
2022-12-18T21:59:23.819Z,100.00
2022-12-18T22:01:53.383Z,100.00
2022-12-18T22:04:22.383Z,100.00
2022-12-18T22:06:56.311Z,100.00
2022-12-18T22:09:31.169Z,100.00
2022-12-18T22:12:04.733Z,100.00
2022-12-18T22:14:32.536Z,100.00
2022-12-18T22:17:01.557Z,100.00
